createdAt,value
2022-10-26T00:01:11.826Z,91.87
2022-10-26T00:03:41.933Z,92.74
2022-10-26T00:06:11.853Z,92.51
2022-10-26T00:08:42.155Z,92.83
2022-10-26T00:11:10.864Z,92.95
2022-10-26T00:13:40.143Z,92.37
2022-10-26T00:16:11.225Z,92.47
2022-10-26T00:18:40.315Z,93.85
2022-10-26T00:21:10.606Z,93.26
2022-10-26T00:23:38.142Z,92.70
2022-10-26T00:26:06.017Z,93.73
2022-10-26T00:28:33.668Z,93.13
2022-10-26T00:31:02.441Z,93.27
2022-10-26T00:33:30.169Z,93.11
2022-10-26T00:35:59.273Z,93.55
2022-10-26T00:38:26.695Z,92.79
2022-10-26T00:40:54.176Z,92.81
2022-10-26T00:43:42.989Z,93.04
2022-10-26T00:46:15.229Z,92.43
2022-10-26T00:48:45.667Z,93.20
2022-10-26T00:51:20.610Z,92.44
2022-10-26T00:53:48.444Z,92.47
2022-10-26T00:56:16.498Z,92.46
2022-10-26T00:58:44.998Z,92.58
2022-10-26T01:01:12.719Z,92.44
2022-10-26T01:03:40.288Z,93.10
2022-10-26T01:06:09.524Z,92.99
2022-10-26T01:08:38.573Z,92.74
2022-10-26T01:11:06.919Z,93.01
2022-10-26T01:13:36.819Z,92.16
2022-10-26T01:16:28.145Z,93.27
2022-10-26T01:19:04.404Z,92.90
2022-10-26T01:21:49.634Z,92.50
2022-10-26T01:24:28.252Z,92.69
2022-10-26T01:27:07.307Z,92.19
2022-10-26T01:30:13.205Z,92.73
2022-10-26T01:32:48.693Z,93.07
2022-10-26T01:35:22.400Z,92.74
2022-10-26T01:37:58.524Z,93.01
2022-10-26T01:40:30.428Z,93.49
2022-10-26T01:43:02.367Z,93.91
2022-10-26T01:45:31.791Z,93.45
2022-10-26T01:48:03.008Z,92.32
2022-10-26T01:50:32.571Z,92.78
2022-10-26T01:53:00.177Z,93.76
2022-10-26T01:55:55.257Z,92.91
2022-10-26T01:58:45.373Z,92.51
2022-10-26T02:01:32.919Z,93.21
2022-10-26T02:04:10.168Z,92.95
2022-10-26T02:06:46.480Z,91.82
2022-10-26T02:09:25.595Z,93.42
2022-10-26T02:11:54.985Z,93.41
2022-10-26T02:14:30.651Z,93.62
2022-10-26T02:17:03.463Z,92.72
2022-10-26T02:19:39.453Z,92.66
2022-10-26T02:22:13.462Z,92.23
2022-10-26T02:24:42.152Z,92.44
2022-10-26T02:27:16.261Z,93.08
2022-10-26T02:29:45.177Z,92.14
2022-10-26T02:32:13.573Z,93.43
2022-10-26T02:34:46.901Z,92.38
2022-10-26T02:37:19.009Z,93.40
2022-10-26T02:39:49.887Z,92.77
2022-10-26T02:42:19.292Z,91.77
2022-10-26T02:44:51.184Z,92.40
2022-10-26T02:47:19.749Z,92.20
2022-10-26T02:49:48.903Z,92.81
2022-10-26T02:52:23.884Z,92.43
2022-10-26T02:54:55.116Z,94.48
2022-10-26T02:57:28.689Z,94.14
2022-10-26T02:59:57.496Z,93.92
2022-10-26T03:02:25.611Z,93.19
2022-10-26T03:04:56.031Z,93.15
2022-10-26T03:07:24.332Z,93.84
2022-10-26T03:09:52.072Z,93.30
2022-10-26T03:12:19.558Z,92.72
2022-10-26T03:14:47.043Z,92.89
2022-10-26T03:17:14.460Z,93.50
2022-10-26T03:19:41.889Z,92.84
2022-10-26T03:22:10.603Z,92.46
2022-10-26T03:24:38.017Z,93.44
2022-10-26T03:27:05.436Z,93.55
2022-10-26T03:29:32.837Z,93.54
2022-10-26T03:32:00.266Z,93.09
2022-10-26T03:34:27.657Z,92.85
2022-10-26T03:36:55.059Z,93.01
2022-10-26T03:39:23.831Z,93.18
2022-10-26T03:41:51.340Z,92.70
2022-10-26T03:44:18.756Z,93.06
2022-10-26T03:46:46.174Z,93.65
2022-10-26T03:49:13.637Z,92.29
2022-10-26T03:51:41.059Z,93.77
2022-10-26T03:54:08.663Z,93.06
2022-10-26T03:56:37.407Z,93.38
2022-10-26T03:59:04.843Z,92.77
2022-10-26T04:01:32.306Z,93.36
2022-10-26T04:03:59.807Z,93.38
2022-10-26T04:06:27.267Z,91.61
2022-10-26T04:08:58.214Z,93.21
2022-10-26T04:11:25.610Z,93.19
2022-10-26T04:13:55.282Z,92.74
2022-10-26T04:16:22.923Z,91.89
2022-10-26T04:18:50.312Z,91.98
2022-10-26T04:21:17.852Z,93.54
2022-10-26T04:23:45.229Z,92.81
2022-10-26T04:26:12.625Z,92.58
2022-10-26T04:28:39.988Z,96.92
2022-10-26T04:31:08.729Z,93.48
2022-10-26T04:33:36.124Z,93.07
2022-10-26T04:36:03.593Z,93.51
2022-10-26T04:38:31.017Z,92.35
2022-10-26T04:40:58.464Z,92.61
2022-10-26T04:43:25.880Z,92.67
2022-10-26T04:45:56.011Z,93.34
2022-10-26T04:50:59.943Z,92.51
2022-10-26T04:53:27.404Z,93.50
2022-10-26T04:55:57.952Z,93.28
2022-10-26T04:58:25.470Z,93.87
2022-10-26T05:00:52.918Z,92.76
2022-10-26T05:03:20.653Z,93.55
2022-10-26T05:05:49.349Z,92.84
2022-10-26T05:08:17.343Z,93.01
2022-10-26T05:10:49.202Z,93.26
2022-10-26T05:13:16.960Z,93.41
2022-10-26T05:15:44.580Z,93.79
2022-10-26T05:18:12.032Z,92.30
2022-10-26T05:20:39.499Z,93.01
2022-10-26T05:23:13.868Z,93.46
2022-10-26T05:25:41.259Z,92.80
2022-10-26T05:28:13.264Z,93.58
2022-10-26T05:30:41.277Z,92.98
2022-10-26T05:33:10.727Z,93.21
2022-10-26T05:35:38.457Z,93.55
2022-10-26T05:38:11.142Z,92.34
2022-10-26T05:40:38.619Z,93.66
2022-10-26T05:43:06.043Z,94.08
2022-10-26T05:45:33.457Z,93.33
2022-10-26T05:48:03.057Z,94.59
2022-10-26T05:50:30.819Z,93.98
2022-10-26T05:52:58.305Z,93.87
2022-10-26T05:55:27.829Z,94.38
2022-10-26T05:57:55.697Z,93.94
2022-10-26T06:00:25.406Z,92.50
2022-10-26T06:03:09.336Z,92.15
2022-10-26T06:05:46.266Z,92.24
2022-10-26T06:08:14.269Z,91.47
2022-10-26T06:10:43.741Z,92.39
2022-10-26T06:13:11.685Z,91.99
2022-10-26T06:15:52.586Z,92.17
2022-10-26T06:18:30.436Z,92.34
2022-10-26T06:21:14.923Z,93.43
2022-10-26T06:23:52.613Z,92.57
2022-10-26T06:26:32.551Z,92.93
2022-10-26T06:29:10.642Z,92.17
2022-10-26T06:31:38.186Z,92.85
2022-10-26T06:34:05.803Z,92.44
2022-10-26T06:36:34.425Z,94.06
2022-10-26T06:39:05.120Z,91.86
2022-10-26T06:41:36.313Z,92.76
2022-10-26T06:44:05.789Z,92.85
2022-10-26T06:46:40.072Z,92.50
2022-10-26T06:49:14.972Z,91.32
2022-10-26T06:51:46.899Z,92.26
2022-10-26T06:54:20.932Z,92.04
2022-10-26T06:56:50.529Z,92.39
2022-10-26T06:59:24.922Z,91.59
2022-10-26T07:01:52.526Z,92.71
2022-10-26T07:04:19.985Z,92.41
2022-10-26T07:06:47.420Z,92.73
2022-10-26T07:09:14.790Z,91.76
2022-10-26T07:11:42.284Z,91.95
2022-10-26T07:14:11.009Z,91.59
2022-10-26T07:16:38.435Z,92.59
2022-10-26T07:19:06.083Z,92.02
2022-10-26T07:21:33.541Z,92.30
2022-10-26T07:24:00.973Z,91.17
2022-10-26T07:26:28.425Z,90.96
2022-10-26T07:28:56.033Z,90.42
2022-10-26T07:31:26.007Z,90.98
2022-10-26T07:33:54.656Z,90.64
2022-10-26T07:36:22.129Z,90.63
2022-10-26T07:38:52.628Z,91.61
2022-10-26T07:41:20.528Z,90.04
2022-10-26T07:43:50.684Z,90.42
2022-10-26T07:46:18.416Z,91.00
2022-10-26T07:48:47.119Z,90.63
2022-10-26T07:51:14.554Z,90.29
2022-10-26T07:53:42.004Z,89.99
2022-10-26T07:56:10.749Z,90.88
2022-10-26T07:58:38.463Z,91.08
2022-10-26T08:01:07.441Z,91.06
2022-10-26T08:03:34.999Z,90.63
2022-10-26T08:06:05.012Z,91.14
2022-10-26T08:08:32.634Z,90.74
2022-10-26T08:11:00.887Z,90.41
2022-10-26T08:13:28.377Z,91.38
2022-10-26T08:15:59.151Z,91.60
2022-10-26T08:18:26.978Z,90.83
2022-10-26T08:21:01.778Z,91.01
2022-10-26T08:23:38.973Z,91.30
2022-10-26T08:26:06.843Z,90.80
2022-10-26T08:28:34.525Z,90.70
2022-10-26T08:31:01.895Z,89.79
2022-10-26T08:33:29.312Z,89.04
2022-10-26T08:35:57.573Z,90.05
2022-10-26T08:38:25.644Z,89.58
2022-10-26T08:40:55.432Z,89.52
2022-10-26T08:43:29.323Z,89.16
2022-10-26T08:46:00.824Z,90.26
2022-10-26T08:48:34.037Z,89.10
2022-10-26T08:51:06.288Z,89.06
2022-10-26T08:53:41.624Z,88.46
2022-10-26T08:56:18.787Z,88.53
2022-10-26T08:58:51.615Z,89.20
2022-10-26T09:01:19.499Z,90.52
2022-10-26T09:03:47.029Z,88.67
2022-10-26T09:06:25.782Z,87.93
2022-10-26T09:09:03.350Z,87.79
2022-10-26T09:11:48.233Z,88.77
2022-10-26T09:14:20.666Z,90.06
2022-10-26T09:17:00.968Z,88.29
2022-10-26T09:19:38.692Z,88.44
2022-10-26T09:22:11.110Z,87.19
2022-10-26T09:24:43.184Z,86.82
2022-10-26T09:27:20.927Z,85.67
2022-10-26T09:29:50.294Z,85.63
2022-10-26T09:32:20.426Z,85.94
2022-10-26T09:34:52.183Z,86.48
2022-10-26T09:37:23.816Z,86.66
2022-10-26T09:39:59.830Z,85.12
2022-10-26T09:42:36.004Z,85.64
2022-10-26T09:45:13.152Z,83.26
2022-10-26T09:47:45.157Z,84.40
2022-10-26T09:50:23.290Z,84.69
2022-10-26T09:52:50.937Z,85.53
2022-10-26T09:55:18.873Z,83.73
2022-10-26T09:57:51.657Z,83.75
2022-10-26T10:00:22.552Z,84.61
2022-10-26T10:02:52.896Z,86.33
2022-10-26T10:05:50.365Z,84.03
2022-10-26T10:08:21.338Z,83.82
2022-10-26T10:11:06.086Z,84.49
2022-10-26T10:13:37.158Z,83.74
2022-10-26T10:16:12.591Z,81.68
2022-10-26T10:18:41.111Z,82.36
2022-10-26T10:21:09.951Z,82.25
2022-10-26T10:23:47.181Z,81.66
2022-10-26T10:26:14.761Z,81.51
2022-10-26T10:28:44.036Z,82.07
2022-10-26T10:31:22.696Z,81.50
2022-10-26T10:33:50.365Z,82.68
2022-10-26T10:36:20.977Z,83.31
2022-10-26T10:38:50.283Z,83.17
2022-10-26T10:41:21.292Z,81.99
2022-10-26T10:43:52.757Z,82.30
2022-10-26T10:46:27.630Z,81.33
2022-10-26T10:49:03.613Z,81.96
2022-10-26T10:51:37.312Z,80.39
2022-10-26T10:54:06.727Z,81.14
2022-10-26T10:56:38.742Z,80.21
2022-10-26T10:59:30.611Z,80.09
2022-10-26T11:02:19.184Z,80.99
2022-10-26T11:05:00.093Z,78.60
2022-10-26T11:07:30.648Z,80.11
2022-10-26T11:10:01.459Z,77.62
2022-10-26T11:12:32.909Z,77.68
2022-10-26T11:15:07.043Z,79.17
2022-10-26T11:17:39.188Z,79.21
2022-10-26T11:20:14.935Z,78.80
2022-10-26T11:22:58.447Z,77.08
2022-10-26T11:25:29.322Z,78.25
2022-10-26T11:28:00.631Z,76.41
2022-10-26T11:30:31.775Z,77.98
2022-10-26T11:33:04.071Z,76.14
2022-10-26T11:35:36.489Z,75.61
2022-10-26T11:38:09.317Z,76.48
2022-10-26T11:40:42.805Z,75.16
2022-10-26T11:43:15.505Z,74.87
2022-10-26T11:45:46.726Z,75.81
2022-10-26T11:48:22.218Z,76.17
2022-10-26T11:50:54.038Z,73.45
2022-10-26T11:53:26.379Z,73.48
2022-10-26T11:55:56.362Z,73.81
2022-10-26T11:58:26.458Z,72.82
2022-10-26T12:00:59.242Z,73.80
2022-10-26T12:03:29.696Z,73.36
2022-10-26T12:05:57.137Z,72.74
2022-10-26T12:08:27.624Z,73.94
2022-10-26T12:11:03.424Z,74.02
2022-10-26T12:13:37.217Z,74.70
2022-10-26T12:16:14.294Z,76.38
2022-10-26T12:19:01.541Z,76.20
2022-10-26T12:21:31.080Z,75.16
2022-10-26T12:24:00.685Z,73.49
2022-10-26T12:26:52.293Z,72.94
2022-10-26T12:29:38.043Z,72.83
2022-10-26T12:32:50.261Z,72.84
2022-10-26T12:35:37.204Z,72.26
2022-10-26T12:38:51.890Z,73.61
2022-10-26T12:41:22.393Z,72.81
2022-10-26T12:43:50.139Z,74.23
2022-10-26T12:46:45.255Z,73.26
2022-10-26T12:49:54.502Z,74.44
2022-10-26T12:52:41.577Z,74.87
2022-10-26T12:55:33.275Z,72.97
2022-10-26T12:58:17.893Z,73.68
2022-10-26T13:00:54.435Z,74.39
2022-10-26T13:03:31.061Z,73.90
2022-10-26T13:06:31.608Z,73.99
2022-10-26T13:09:01.645Z,74.13
2022-10-26T13:11:33.556Z,74.52
2022-10-26T13:14:04.322Z,76.07
2022-10-26T13:16:31.984Z,75.38
2022-10-26T13:19:00.521Z,75.49
2022-10-26T13:21:28.787Z,75.33
2022-10-26T13:24:05.279Z,75.35
2022-10-26T13:26:53.885Z,75.40
2022-10-26T13:29:30.847Z,74.57
2022-10-26T13:31:59.957Z,75.30
2022-10-26T13:34:30.870Z,75.44
2022-10-26T13:37:06.161Z,74.81
2022-10-26T13:39:37.569Z,74.98
2022-10-26T13:42:06.947Z,76.47
2022-10-26T13:44:40.370Z,75.79
2022-10-26T13:47:12.144Z,76.11
2022-10-26T13:49:42.082Z,75.66
2022-10-26T13:52:17.361Z,76.45
2022-10-26T13:54:51.370Z,76.76
2022-10-26T13:57:23.919Z,76.77
2022-10-26T13:59:53.715Z,76.64
2022-10-26T14:02:25.211Z,76.80
2022-10-26T14:04:54.637Z,75.75
2022-10-26T14:07:25.071Z,76.12
2022-10-26T14:09:57.769Z,76.50
2022-10-26T14:12:28.316Z,75.37
2022-10-26T14:15:03.770Z,75.65
2022-10-26T14:17:31.320Z,76.90
2022-10-26T14:19:58.941Z,76.22
2022-10-26T14:22:28.841Z,76.31
2022-10-26T14:24:58.194Z,78.28
2022-10-26T14:27:27.801Z,76.38
2022-10-26T14:30:23.891Z,75.88
2022-10-26T14:32:45.296Z,75.98
2022-10-26T14:35:13.789Z,78.10
2022-10-26T14:37:46.459Z,75.67
2022-10-26T14:40:18.402Z,75.69
2022-10-26T14:42:50.443Z,75.71
2022-10-26T14:45:29.879Z,76.09
2022-10-26T14:48:24.386Z,75.90
2022-10-26T14:51:02.490Z,75.67
2022-10-26T14:53:37.795Z,75.89
2022-10-26T14:56:07.077Z,76.55
2022-10-26T14:58:35.255Z,76.51
2022-10-26T15:01:31.624Z,76.74
2022-10-26T15:04:02.684Z,76.50
2022-10-26T15:06:32.467Z,76.10
2022-10-26T15:09:01.451Z,76.93
2022-10-26T15:11:30.449Z,76.80
2022-10-26T15:13:59.104Z,76.59
2022-10-26T15:16:28.269Z,77.01
2022-10-26T15:18:58.338Z,76.34
2022-10-26T15:21:31.248Z,76.80
2022-10-26T15:23:59.726Z,76.68
2022-10-26T15:26:27.356Z,77.70
2022-10-26T15:28:55.125Z,77.22
2022-10-26T15:31:35.121Z,77.56
2022-10-26T15:34:15.159Z,77.61
2022-10-26T15:36:44.446Z,77.64
2022-10-26T15:39:11.912Z,78.23
2022-10-26T15:41:45.231Z,78.40
2022-10-26T15:44:22.539Z,78.20
2022-10-26T15:46:50.655Z,78.33
2022-10-26T15:49:20.036Z,79.26
2022-10-26T15:51:50.020Z,79.48
2022-10-26T15:54:17.461Z,78.81
2022-10-26T15:56:45.500Z,79.87
2022-10-26T15:59:15.845Z,79.81
2022-10-26T16:01:43.384Z,79.34
2022-10-26T16:04:12.338Z,79.61
2022-10-26T16:06:42.233Z,79.64
2022-10-26T16:09:15.555Z,80.04
2022-10-26T16:11:43.481Z,79.91
2022-10-26T16:14:11.135Z,80.73
2022-10-26T16:16:38.948Z,81.94
2022-10-26T16:19:29.158Z,80.99
2022-10-26T16:21:53.941Z,81.43
2022-10-26T16:24:22.792Z,80.93
2022-10-26T16:26:50.332Z,81.25
2022-10-26T16:29:17.848Z,81.76
2022-10-26T16:31:45.301Z,81.65
2022-10-26T16:34:12.736Z,82.34
2022-10-26T16:36:40.203Z,81.79
2022-10-26T16:39:08.656Z,81.26
2022-10-26T16:41:37.381Z,81.31
2022-10-26T16:44:05.013Z,82.03
2022-10-26T16:46:32.553Z,81.79
2022-10-26T16:49:00.490Z,81.65
2022-10-26T16:51:29.049Z,81.41
2022-10-26T16:53:57.977Z,81.77
2022-10-26T16:56:27.357Z,81.65
2022-10-26T16:58:57.358Z,82.23
2022-10-26T17:01:25.502Z,82.16
2022-10-26T17:03:53.302Z,82.13
2022-10-26T17:06:21.285Z,82.60
2022-10-26T17:08:49.311Z,82.56
2022-10-26T17:11:18.860Z,82.68
2022-10-26T17:13:47.224Z,82.44
2022-10-26T17:16:19.140Z,82.47
2022-10-26T17:18:48.071Z,82.50
2022-10-26T17:21:17.815Z,82.59
2022-10-26T17:23:45.308Z,83.06
2022-10-26T17:26:14.723Z,82.69
2022-10-26T17:28:43.241Z,83.26
2022-10-26T17:31:13.258Z,82.81
2022-10-26T17:33:43.683Z,83.01
2022-10-26T17:36:13.078Z,83.30
2022-10-26T17:38:42.430Z,82.88
2022-10-26T17:41:12.049Z,83.30
2022-10-26T17:43:40.872Z,83.23
2022-10-26T17:46:11.395Z,83.84
2022-10-26T17:48:39.354Z,83.38
2022-10-26T17:51:11.178Z,84.62
2022-10-26T17:53:38.647Z,84.21
2022-10-26T17:56:08.182Z,83.81
2022-10-26T17:58:36.356Z,82.32
2022-10-26T18:01:06.594Z,83.44
2022-10-26T18:03:34.658Z,83.51
2022-10-26T18:06:02.648Z,83.60
2022-10-26T18:08:33.284Z,83.96
2022-10-26T18:11:01.300Z,84.56
2022-10-26T18:13:31.323Z,84.35
2022-10-26T18:16:04.274Z,84.99
2022-10-26T18:18:31.908Z,84.96
2022-10-26T18:21:02.794Z,85.07
2022-10-26T18:23:31.613Z,84.28
2022-10-26T18:26:08.345Z,84.41
2022-10-26T18:28:38.946Z,84.80
2022-10-26T18:31:08.393Z,85.18
2022-10-26T18:33:36.350Z,85.32
2022-10-26T18:36:04.947Z,85.19
2022-10-26T18:38:34.012Z,85.16
2022-10-26T18:41:01.847Z,84.79
2022-10-26T18:43:30.558Z,84.88
2022-10-26T18:46:05.677Z,84.89
2022-10-26T18:48:33.771Z,84.53
2022-10-26T18:51:05.217Z,83.42
2022-10-26T18:53:35.272Z,83.57
2022-10-26T18:56:04.411Z,83.28
2022-10-26T18:58:32.234Z,83.91
2022-10-26T19:01:09.278Z,83.99
2022-10-26T19:03:37.320Z,83.86
2022-10-26T19:06:12.185Z,84.44
2022-10-26T19:08:41.948Z,84.34
2022-10-26T19:11:10.904Z,84.49
2022-10-26T19:13:38.576Z,86.30
2022-10-26T19:16:16.974Z,85.98
2022-10-26T19:18:56.647Z,84.85
2022-10-26T19:21:24.968Z,85.22
2022-10-26T19:23:56.608Z,85.15
2022-10-26T19:26:26.799Z,85.66
2022-10-26T19:28:57.457Z,84.65
2022-10-26T19:31:27.262Z,85.25
2022-10-26T19:33:56.433Z,84.79
2022-10-26T19:36:23.968Z,85.75
2022-10-26T19:38:51.444Z,85.30
2022-10-26T19:41:22.374Z,85.39
2022-10-26T19:43:50.345Z,85.51
2022-10-26T19:46:21.083Z,85.32
2022-10-26T19:48:52.843Z,85.68
2022-10-26T19:51:20.950Z,86.70
2022-10-26T19:53:48.453Z,86.39
2022-10-26T19:56:16.712Z,86.50
2022-10-26T19:58:45.825Z,85.37
2022-10-26T20:01:15.451Z,86.10
2022-10-26T20:03:43.250Z,86.24
2022-10-26T20:06:12.906Z,87.37
2022-10-26T20:08:41.607Z,86.53
2022-10-26T20:11:13.199Z,86.82
2022-10-26T20:13:45.922Z,86.59
2022-10-26T20:16:14.736Z,86.92
2022-10-26T20:18:45.792Z,86.20
2022-10-26T20:21:16.295Z,86.85
2022-10-26T20:23:43.868Z,86.84
2022-10-26T20:26:18.092Z,86.92
2022-10-26T20:28:50.751Z,87.35
2022-10-26T20:31:18.216Z,87.76
2022-10-26T20:33:45.663Z,88.28
2022-10-26T20:36:13.071Z,87.77
2022-10-26T20:38:41.240Z,87.83
2022-10-26T20:41:12.044Z,87.80
2022-10-26T20:43:40.625Z,87.83
2022-10-26T20:46:11.652Z,89.19
2022-10-26T20:48:39.746Z,89.83
2022-10-26T20:51:16.678Z,88.93
2022-10-26T20:53:52.060Z,86.57
2022-10-26T20:56:24.730Z,88.51
2022-10-26T20:58:54.366Z,89.02
2022-10-26T21:01:26.019Z,89.40
2022-10-26T21:03:54.077Z,89.16
2022-10-26T21:06:22.210Z,88.35
2022-10-26T21:08:50.496Z,89.30
2022-10-26T21:11:18.453Z,89.16
2022-10-26T21:13:48.225Z,87.70
2022-10-26T21:16:16.085Z,89.14
2022-10-26T21:18:44.896Z,88.77
2022-10-26T21:21:12.617Z,89.60
2022-10-26T21:23:41.823Z,88.94
2022-10-26T21:26:10.101Z,88.45
2022-10-26T21:28:39.323Z,88.52
2022-10-26T21:31:09.398Z,89.46
2022-10-26T21:33:37.248Z,88.47
2022-10-26T21:36:07.914Z,88.94
2022-10-26T21:38:35.454Z,89.94
2022-10-26T21:41:04.588Z,90.76
2022-10-26T21:43:31.993Z,90.22
2022-10-26T21:46:03.571Z,89.39
2022-10-26T21:48:32.771Z,88.96
2022-10-26T21:51:02.190Z,89.86
2022-10-26T21:53:31.052Z,90.14
2022-10-26T21:56:02.361Z,90.24
2022-10-26T21:58:30.242Z,89.32
2022-10-26T22:01:06.152Z,90.63
2022-10-26T22:03:34.185Z,89.93
2022-10-26T22:06:01.757Z,90.19
2022-10-26T22:08:31.056Z,90.58
2022-10-26T22:10:59.270Z,90.21
2022-10-26T22:13:26.692Z,90.39
2022-10-26T22:16:12.654Z,90.16
2022-10-26T22:18:41.467Z,90.73
2022-10-26T22:21:10.518Z,90.66
2022-10-26T22:23:40.985Z,91.03
2022-10-26T22:26:10.941Z,90.89
2022-10-26T22:28:42.477Z,90.28
2022-10-26T22:31:13.928Z,90.81
2022-10-26T22:33:41.760Z,90.99
2022-10-26T22:36:10.816Z,90.67
2022-10-26T22:38:40.138Z,90.24
2022-10-26T22:41:08.538Z,90.50
2022-10-26T22:43:36.589Z,90.37
2022-10-26T22:46:06.329Z,90.54
2022-10-26T22:48:34.408Z,92.39
2022-10-26T22:51:06.119Z,89.93
2022-10-26T22:53:33.591Z,92.41
2022-10-26T22:56:03.187Z,90.43
2022-10-26T22:58:30.970Z,91.88
2022-10-26T23:01:03.460Z,92.91
2022-10-26T23:03:30.946Z,90.72
2022-10-26T23:05:59.213Z,89.74
2022-10-26T23:08:26.916Z,90.07
2022-10-26T23:10:54.756Z,89.71
2022-10-26T23:13:23.497Z,89.69
2022-10-26T23:15:50.899Z,89.47
2022-10-26T23:18:18.384Z,89.13
2022-10-26T23:20:49.095Z,90.03
2022-10-26T23:23:16.619Z,90.01
2022-10-26T23:25:44.159Z,90.58
2022-10-26T23:28:12.007Z,90.38
2022-10-26T23:30:40.704Z,90.90
2022-10-26T23:33:08.756Z,90.82
2022-10-26T23:35:36.145Z,90.19
2022-10-26T23:38:03.686Z,90.10
2022-10-26T23:40:31.151Z,91.46
2022-10-26T23:42:58.592Z,90.26
2022-10-26T23:45:26.026Z,91.41
2022-10-26T23:47:54.774Z,91.18
2022-10-26T23:50:22.210Z,91.02
2022-10-26T23:52:49.899Z,91.04
2022-10-26T23:55:17.691Z,90.41
2022-10-26T23:57:45.117Z,90.60
